createdAt,value
2017-11-26T00:00:54.362Z,11.23
2017-11-26T00:03:21.451Z,9.47
2017-11-26T00:05:47.735Z,11.40
2017-11-26T00:08:14.718Z,10.53
2017-11-26T00:10:40.990Z,11.20
2017-11-26T00:13:07.274Z,8.00
2017-11-26T00:15:33.562Z,9.73
2017-11-26T00:18:00.613Z,8.03
2017-11-26T00:20:26.926Z,11.30
2017-11-26T00:22:53.257Z,11.93
2017-11-26T00:25:19.509Z,13.23
2017-11-26T00:27:46.528Z,11.30
2017-11-26T00:30:12.790Z,11.93
2017-11-26T00:32:39.083Z,10.33
2017-11-26T00:35:05.354Z,12.20
2017-11-26T00:37:31.663Z,13.35
2017-11-26T00:39:58.719Z,13.13
2017-11-26T00:42:25.755Z,13.98
2017-11-26T00:44:52.763Z,12.33
2017-11-26T00:47:19.041Z,14.57
2017-11-26T00:49:46.063Z,13.93
2017-11-26T00:52:12.344Z,14.30
2017-11-26T00:54:38.624Z,13.90
2017-11-26T00:57:04.916Z,11.40
2017-11-26T00:59:31.169Z,11.17
2017-11-26T01:01:57.456Z,15.53
2017-11-26T01:04:23.732Z,14.82
2017-11-26T01:06:50.008Z,14.13
2017-11-26T01:09:16.279Z,14.13
2017-11-26T01:11:42.608Z,13.60
2017-11-26T01:14:08.848Z,12.52
2017-11-26T01:16:35.162Z,13.05
2017-11-26T01:19:01.472Z,9.52
2017-11-26T01:21:27.759Z,16.20
2017-11-26T01:23:54.741Z,11.90
2017-11-26T01:26:21.048Z,14.45
2017-11-26T01:28:48.049Z,11.87
2017-11-26T01:31:14.341Z,15.80
2017-11-26T01:33:40.606Z,13.38
2017-11-26T01:36:06.906Z,16.07
2017-11-26T01:38:33.187Z,17.50
2017-11-26T01:40:59.451Z,16.50
2017-11-26T01:43:25.712Z,14.97
2017-11-26T01:45:51.978Z,10.90
2017-11-26T01:48:18.243Z,13.37
2017-11-26T01:50:44.526Z,14.33
2017-11-26T01:53:10.784Z,11.07
2017-11-26T01:55:37.844Z,17.17
2017-11-26T01:58:04.879Z,17.20
2017-11-26T02:00:31.971Z,13.30
2017-11-26T02:02:58.249Z,18.33
2017-11-26T02:05:25.298Z,16.87
2017-11-26T02:07:52.296Z,18.53
2017-11-26T02:10:18.608Z,20.50
2017-11-26T02:12:44.887Z,19.23
2017-11-26T02:15:11.196Z,10.25
2017-11-26T02:17:37.465Z,20.08
2017-11-26T02:20:04.518Z,17.37
2017-11-26T02:22:31.549Z,20.63
2017-11-26T02:24:57.859Z,21.80
2017-11-26T02:27:24.155Z,8.97
2017-11-26T02:29:50.538Z,7.80
2017-11-26T02:32:28.989Z,20.60
2017-11-26T02:35:08.593Z,8.70
2017-11-26T02:37:34.872Z,19.93
2017-11-26T02:40:01.227Z,20.20
2017-11-26T02:42:27.554Z,12.97
2017-11-26T02:44:53.866Z,17.98
2017-11-26T02:47:20.495Z,12.97
2017-11-26T02:49:46.833Z,16.60
2017-11-26T02:52:13.129Z,16.92
2017-11-26T02:54:40.211Z,16.80
2017-11-26T02:57:06.492Z,18.85
2017-11-26T02:59:32.748Z,21.27
2017-11-26T03:01:59.037Z,20.92
2017-11-26T03:04:25.322Z,12.63
2017-11-26T03:06:51.626Z,15.47
2017-11-26T03:09:18.636Z,19.37
2017-11-26T03:11:44.983Z,20.70
2017-11-26T03:14:11.245Z,17.30
2017-11-26T03:16:37.552Z,20.00
2017-11-26T03:19:03.854Z,19.00
2017-11-26T03:21:30.156Z,17.20
2017-11-26T03:23:56.460Z,13.07
2017-11-26T03:26:23.494Z,14.47
2017-11-26T03:28:50.562Z,16.63
2017-11-26T03:31:16.861Z,15.73
2017-11-26T03:33:43.117Z,19.30
2017-11-26T03:36:09.417Z,14.43
2017-11-26T03:38:35.712Z,13.87
2017-11-26T03:41:02.048Z,18.17
2017-11-26T03:43:28.314Z,16.20
2017-11-26T03:45:54.608Z,18.40
2017-11-26T03:48:20.896Z,9.50
2017-11-26T03:50:47.187Z,14.82
2017-11-26T03:53:13.457Z,19.13
2017-11-26T03:55:39.778Z,16.60
2017-11-26T03:58:06.088Z,17.30
2017-11-26T04:00:32.380Z,10.07
2017-11-26T04:02:58.673Z,15.70
2017-11-26T04:05:25.038Z,16.65
2017-11-26T04:07:51.308Z,18.85
2017-11-26T04:10:17.583Z,16.83
2017-11-26T04:12:43.839Z,18.60
2017-11-26T04:15:10.129Z,9.40
2017-11-26T04:17:36.405Z,14.63
2017-11-26T04:20:02.731Z,17.60
2017-11-26T04:22:29.041Z,14.43
2017-11-26T04:24:55.359Z,18.20
2017-11-26T04:27:21.678Z,14.77
2017-11-26T04:29:47.990Z,15.63
2017-11-26T04:32:14.998Z,18.47
2017-11-26T04:34:41.307Z,19.10
2017-11-26T04:37:07.587Z,19.58
2017-11-26T04:39:34.612Z,17.55
2017-11-26T04:42:00.905Z,7.90
2017-11-26T04:44:27.184Z,17.50
2017-11-26T04:46:54.246Z,12.40
2017-11-26T04:49:21.265Z,18.40
2017-11-26T04:51:47.615Z,18.67
2017-11-26T04:54:13.885Z,12.10
2017-11-26T04:56:40.172Z,13.00
2017-11-26T04:59:06.497Z,19.47
2017-11-26T05:01:32.853Z,21.40
2017-11-26T05:03:59.876Z,20.90
2017-11-26T05:06:26.210Z,12.55
2017-11-26T05:08:52.477Z,18.83
2017-11-26T05:11:18.762Z,8.47
2017-11-26T05:13:45.111Z,18.73
2017-11-26T05:16:12.138Z,21.27
2017-11-26T05:18:38.410Z,12.53
2017-11-26T05:21:04.709Z,16.40
2017-11-26T05:23:31.023Z,17.93
2017-11-26T05:25:57.273Z,11.50
2017-11-26T05:28:24.286Z,21.30
2017-11-26T05:30:50.594Z,20.35
2017-11-26T05:33:16.911Z,17.10
2017-11-26T05:35:43.995Z,19.77
2017-11-26T05:38:10.294Z,15.65
2017-11-26T05:40:36.614Z,20.40
2017-11-26T05:43:02.882Z,21.93
2017-11-26T05:45:29.234Z,19.17
2017-11-26T05:47:55.560Z,18.73
2017-11-26T05:50:21.883Z,18.13
2017-11-26T05:52:48.204Z,18.60
2017-11-26T05:55:14.539Z,19.10
2017-11-26T05:57:40.838Z,18.77
2017-11-26T06:00:07.167Z,19.93
2017-11-26T06:02:33.437Z,15.67
2017-11-26T06:04:59.750Z,12.00
2017-11-26T06:07:26.006Z,13.50
2017-11-26T06:09:52.333Z,12.57
2017-11-26T06:12:18.608Z,17.47
2017-11-26T06:14:44.912Z,15.30
2017-11-26T06:17:11.962Z,11.90
2017-11-26T06:19:38.989Z,18.13
2017-11-26T06:22:05.299Z,18.00
2017-11-26T06:24:31.642Z,15.00
2017-11-26T06:26:57.938Z,15.20
2017-11-26T06:29:25.056Z,17.30
2017-11-26T06:31:51.390Z,15.87
2017-11-26T06:34:17.742Z,8.53
2017-11-26T06:36:44.021Z,13.70
2017-11-26T06:39:10.396Z,14.80
2017-11-26T06:41:36.666Z,12.93
2017-11-26T06:44:02.965Z,14.83
2017-11-26T06:46:29.376Z,16.80
2017-11-26T06:48:55.704Z,18.43
2017-11-26T06:51:22.082Z,12.57
2017-11-26T06:53:48.416Z,17.57
2017-11-26T06:56:14.726Z,7.55
2017-11-26T06:58:41.044Z,14.43
2017-11-26T07:01:08.147Z,14.20
2017-11-26T07:03:34.466Z,11.70
2017-11-26T07:06:01.573Z,14.63
2017-11-26T07:08:27.934Z,10.10
2017-11-26T07:10:54.219Z,9.87
2017-11-26T07:13:20.542Z,13.67
2017-11-26T07:15:46.881Z,13.43
2017-11-26T07:18:13.199Z,6.15
2017-11-26T07:20:39.535Z,12.27
2017-11-26T07:23:05.816Z,12.57
2017-11-26T07:25:32.152Z,8.27
2017-11-26T07:27:58.464Z,13.80
2017-11-26T07:30:24.815Z,14.00
2017-11-26T07:32:51.509Z,10.30
2017-11-26T07:35:18.569Z,6.07
2017-11-26T07:37:45.723Z,10.90
2017-11-26T07:40:12.043Z,13.13
2017-11-26T07:42:38.381Z,12.37
2017-11-26T07:45:04.704Z,11.00
2017-11-26T07:47:31.859Z,8.77
2017-11-26T07:49:58.203Z,12.10
2017-11-26T07:52:25.395Z,12.17
2017-11-26T07:54:51.729Z,8.67
2017-11-26T07:57:18.130Z,10.03
2017-11-26T07:59:44.458Z,13.60
2017-11-26T08:02:10.745Z,13.87
2017-11-26T08:04:37.036Z,7.43
2017-11-26T08:07:03.331Z,10.80
2017-11-26T08:09:29.617Z,10.30
2017-11-26T08:11:55.953Z,12.93
2017-11-26T08:14:23.231Z,13.70
2017-11-26T08:16:50.193Z,12.60
2017-11-26T08:19:16.487Z,13.57
2017-11-26T08:21:42.786Z,13.70
2017-11-26T08:24:09.930Z,7.77
2017-11-26T08:26:36.968Z,9.90
2017-11-26T08:29:03.250Z,10.30
2017-11-26T08:31:29.569Z,11.77
2017-11-26T08:33:55.832Z,7.23
2017-11-26T08:36:22.203Z,11.63
2017-11-26T08:38:49.250Z,7.40
2017-11-26T08:41:16.306Z,12.50
2017-11-26T08:43:42.613Z,8.63
2017-11-26T08:46:08.932Z,11.20
2017-11-26T08:48:35.238Z,11.83
2017-11-26T08:51:01.553Z,5.00
2017-11-26T08:53:27.946Z,9.27
2017-11-26T08:55:54.993Z,8.90
2017-11-26T08:58:22.034Z,10.17
2017-11-26T09:00:48.336Z,10.37
2017-11-26T09:03:14.704Z,8.87
2017-11-26T09:05:41.749Z,9.57
2017-11-26T09:08:08.805Z,9.57
2017-11-26T09:10:35.105Z,6.40
2017-11-26T09:13:01.383Z,10.23
2017-11-26T09:15:27.669Z,5.40
2017-11-26T09:17:53.983Z,7.23
2017-11-26T09:20:20.269Z,8.43
2017-11-26T09:22:46.521Z,7.30
2017-11-26T09:25:12.851Z,6.83
2017-11-26T09:27:39.129Z,7.60
2017-11-26T09:30:06.187Z,7.10
2017-11-26T09:32:33.181Z,10.27
2017-11-26T09:34:59.495Z,8.50
2017-11-26T09:37:25.749Z,8.70
2017-11-26T09:39:52.031Z,8.10
2017-11-26T09:42:19.049Z,8.90
2017-11-26T09:44:45.374Z,5.47
2017-11-26T09:47:11.788Z,5.13
2017-11-26T09:49:38.102Z,8.00
2017-11-26T09:52:04.374Z,6.40
2017-11-26T09:54:30.670Z,6.63
2017-11-26T09:56:56.935Z,7.87
2017-11-26T09:59:23.224Z,8.30
2017-11-26T10:01:49.514Z,8.23
2017-11-26T10:04:16.519Z,8.97
2017-11-26T10:06:42.781Z,7.10
2017-11-26T10:09:09.819Z,9.50
2017-11-26T10:11:36.067Z,7.07
2017-11-26T10:14:03.096Z,6.20
2017-11-26T10:16:30.116Z,7.00
2017-11-26T10:18:56.377Z,6.80
2017-11-26T10:21:23.399Z,8.40
2017-11-26T10:23:49.678Z,8.30
2017-11-26T10:26:15.954Z,8.83
2017-11-26T10:28:42.249Z,9.87
2017-11-26T10:31:08.537Z,6.80
2017-11-26T10:33:35.572Z,8.57
2017-11-26T10:36:01.870Z,4.67
2017-11-26T10:38:28.140Z,6.03
2017-11-26T10:40:54.393Z,7.20
2017-11-26T10:43:20.704Z,8.80
2017-11-26T10:45:47.714Z,5.80
2017-11-26T10:48:14.000Z,9.43
2017-11-26T10:50:40.302Z,9.60
2017-11-26T10:53:06.601Z,5.80
2017-11-26T10:55:32.891Z,6.73
2017-11-26T10:57:59.261Z,5.03
2017-11-26T11:00:25.566Z,10.27
2017-11-26T11:02:51.846Z,10.87
2017-11-26T11:05:18.134Z,5.33
2017-11-26T11:07:44.417Z,9.70
2017-11-26T11:10:10.717Z,9.70
2017-11-26T11:12:36.988Z,10.43
2017-11-26T11:15:04.030Z,9.60
2017-11-26T11:17:31.079Z,7.53
2017-11-26T11:19:58.143Z,8.00
2017-11-26T11:22:24.431Z,7.27
2017-11-26T11:24:50.761Z,5.60
2017-11-26T11:27:17.026Z,5.30
2017-11-26T11:29:44.040Z,9.00
2017-11-26T11:32:10.333Z,7.20
2017-11-26T11:34:36.634Z,5.20
2017-11-26T11:37:02.909Z,8.83
2017-11-26T11:39:29.176Z,5.30
2017-11-26T11:41:56.190Z,9.00
2017-11-26T11:44:22.463Z,7.10
2017-11-26T11:46:48.754Z,8.50
2017-11-26T11:49:15.049Z,9.20
2017-11-26T11:51:41.364Z,8.30
2017-11-26T11:54:07.703Z,8.00
2017-11-26T11:56:34.031Z,6.30
2017-11-26T11:59:00.333Z,8.93
2017-11-26T12:01:27.394Z,7.50
2017-11-26T12:03:53.752Z,8.60
2017-11-26T12:06:20.049Z,6.60
2017-11-26T12:08:47.083Z,7.73
2017-11-26T12:11:13.402Z,8.07
2017-11-26T12:13:39.706Z,5.47
2017-11-26T12:16:05.986Z,6.47
2017-11-26T12:18:33.078Z,10.33
2017-11-26T12:20:59.367Z,8.03
2017-11-26T12:23:25.682Z,9.33
2017-11-26T12:25:51.988Z,10.00
2017-11-26T12:28:18.288Z,10.90
2017-11-26T12:30:44.590Z,9.03
2017-11-26T12:33:11.636Z,8.93
2017-11-26T12:35:38.723Z,9.53
2017-11-26T12:38:05.022Z,8.50
2017-11-26T12:40:31.342Z,11.20
2017-11-26T12:42:58.425Z,7.77
2017-11-26T12:45:24.725Z,10.30
2017-11-26T12:47:51.290Z,8.77
2017-11-26T12:50:17.602Z,6.80
2017-11-26T12:52:43.901Z,7.00
2017-11-26T12:55:10.203Z,7.90
2017-11-26T12:57:36.475Z,7.87
2017-11-26T13:00:03.529Z,5.50
2017-11-26T13:02:29.830Z,4.77
2017-11-26T13:04:56.152Z,7.60
2017-11-26T13:07:22.463Z,5.00
2017-11-26T13:09:48.808Z,7.13
2017-11-26T13:12:15.139Z,7.33
2017-11-26T13:14:41.505Z,7.43
2017-11-26T13:17:08.574Z,6.33
2017-11-26T13:19:35.018Z,6.40
2017-11-26T13:22:01.344Z,6.00
2017-11-26T13:24:27.629Z,6.73
2017-11-26T13:26:53.937Z,6.00
2017-11-26T13:29:20.737Z,5.30
2017-11-26T13:31:47.073Z,6.33
2017-11-26T13:34:13.403Z,4.50
2017-11-26T13:36:39.758Z,4.00
2017-11-26T13:39:06.039Z,5.40
2017-11-26T13:41:32.349Z,4.57
2017-11-26T13:43:59.434Z,6.10
2017-11-26T13:46:25.827Z,5.40
2017-11-26T13:48:52.126Z,6.73
2017-11-26T13:51:18.450Z,5.77
2017-11-26T13:53:44.754Z,6.37
2017-11-26T13:56:11.080Z,4.40
2017-11-26T13:58:37.375Z,4.77
2017-11-26T14:01:03.695Z,5.83
2017-11-26T14:03:30.010Z,6.07
2017-11-26T14:05:56.352Z,6.30
2017-11-26T14:08:22.690Z,6.67
2017-11-26T14:10:49.014Z,5.43
2017-11-26T14:13:15.341Z,7.40
2017-11-26T14:15:41.692Z,6.03
2017-11-26T14:18:08.754Z,6.63
2017-11-26T14:20:35.817Z,6.57
2017-11-26T14:23:02.118Z,3.80
2017-11-26T14:25:28.451Z,5.60
2017-11-26T14:27:54.840Z,5.27
2017-11-26T14:30:21.153Z,5.00
2017-11-26T14:32:47.454Z,5.00
2017-11-26T14:35:14.562Z,5.27
2017-11-26T14:37:40.856Z,5.50
2017-11-26T14:40:07.232Z,3.27
2017-11-26T14:42:33.529Z,5.90
2017-11-26T14:44:59.823Z,5.43
2017-11-26T14:47:26.834Z,4.30
2017-11-26T14:49:53.160Z,4.10
2017-11-26T14:52:19.456Z,4.37
2017-11-26T14:54:45.781Z,4.53
2017-11-26T14:57:12.089Z,4.80
2017-11-26T14:59:39.157Z,3.30
2017-11-26T15:02:05.444Z,3.73
2017-11-26T15:04:31.738Z,4.80
2017-11-26T15:06:58.783Z,3.30
2017-11-26T15:09:25.115Z,5.53
2017-11-26T15:11:51.392Z,3.03
2017-11-26T15:14:17.707Z,5.67
2017-11-26T15:16:44.049Z,4.70
2017-11-26T15:19:10.361Z,4.40
2017-11-26T15:21:36.644Z,3.93
2017-11-26T15:24:02.968Z,4.60
2017-11-26T15:26:29.989Z,3.77
2017-11-26T15:28:56.295Z,4.60
2017-11-26T15:31:22.578Z,5.33
2017-11-26T15:33:49.665Z,5.23
2017-11-26T15:36:15.974Z,3.77
2017-11-26T15:38:42.315Z,3.80
2017-11-26T15:41:08.625Z,3.93
2017-11-26T15:43:34.945Z,3.10
2017-11-26T15:46:01.981Z,3.20
2017-11-26T15:48:29.268Z,2.87
2017-11-26T15:50:55.564Z,3.50
2017-11-26T15:53:22.623Z,4.63
2017-11-26T15:55:51.513Z,4.10
2017-11-26T15:58:17.954Z,3.53
2017-11-26T16:00:44.284Z,3.33
2017-11-26T16:03:10.684Z,4.53
2017-11-26T16:05:38.161Z,5.73
2017-11-26T16:08:05.252Z,3.90
2017-11-26T16:10:31.796Z,4.93
2017-11-26T16:13:00.423Z,5.63
2017-11-26T16:15:27.527Z,6.07
2017-11-26T16:17:53.850Z,3.70
2017-11-26T16:20:20.909Z,5.13
2017-11-26T16:22:47.250Z,5.10
2017-11-26T16:25:13.550Z,4.77
2017-11-26T16:27:39.885Z,4.33
2017-11-26T16:30:06.170Z,6.20
2017-11-26T16:32:33.237Z,5.30
2017-11-26T16:34:59.552Z,5.83
2017-11-26T16:37:26.590Z,7.10
2017-11-26T16:39:53.694Z,3.27
2017-11-26T16:42:20.135Z,4.73
2017-11-26T16:44:46.464Z,4.87
2017-11-26T16:47:12.800Z,4.93
2017-11-26T16:49:39.125Z,3.97
2017-11-26T16:52:05.446Z,6.13
2017-11-26T16:54:31.725Z,4.47
2017-11-26T16:56:58.818Z,6.30
2017-11-26T16:59:25.177Z,5.70
2017-11-26T17:01:51.487Z,5.30
2017-11-26T17:04:17.821Z,6.00
2017-11-26T17:06:44.219Z,3.60
2017-11-26T17:09:10.575Z,3.77
2017-11-26T17:11:37.236Z,5.77
2017-11-26T17:14:03.626Z,3.03
2017-11-26T17:16:29.954Z,5.93
2017-11-26T17:18:56.272Z,6.30
2017-11-26T17:21:22.587Z,4.70
2017-11-26T17:23:48.874Z,5.30
2017-11-26T17:26:16.368Z,6.57
2017-11-26T17:28:42.669Z,6.60
2017-11-26T17:31:08.983Z,6.43
2017-11-26T17:33:35.281Z,5.73
2017-11-26T17:36:02.319Z,5.67
2017-11-26T17:38:28.688Z,5.80
2017-11-26T17:40:54.983Z,5.60
2017-11-26T17:43:22.027Z,6.03
2017-11-26T17:45:48.369Z,5.90
2017-11-26T17:48:15.422Z,5.63
2017-11-26T17:50:41.728Z,3.87
2017-11-26T17:53:08.741Z,5.13
2017-11-26T17:55:35.057Z,5.20
2017-11-26T17:58:01.324Z,5.60
2017-11-26T18:00:27.649Z,5.10
2017-11-26T18:02:53.920Z,5.00
2017-11-26T18:05:20.209Z,5.50
2017-11-26T18:07:46.505Z,3.23
2017-11-26T18:10:12.839Z,5.33
2017-11-26T18:12:39.101Z,4.00
2017-11-26T18:15:05.391Z,4.07
2017-11-26T18:17:31.666Z,4.60
2017-11-26T18:19:57.959Z,4.00
2017-11-26T18:22:24.246Z,3.50
2017-11-26T18:24:50.558Z,4.40
2017-11-26T18:27:16.822Z,3.40
2017-11-26T18:29:43.197Z,4.07
2017-11-26T18:32:10.070Z,4.00
2017-11-26T18:34:36.400Z,3.50
2017-11-26T18:37:02.706Z,2.33
2017-11-26T18:39:28.975Z,3.70
2017-11-26T18:41:55.279Z,3.53
2017-11-26T18:44:21.552Z,3.63
2017-11-26T18:46:47.825Z,2.00
2017-11-26T18:49:14.106Z,3.33
2017-11-26T18:51:40.501Z,2.60
2017-11-26T18:54:07.533Z,3.77
2017-11-26T18:56:33.838Z,3.20
2017-11-26T18:59:00.105Z,3.63
2017-11-26T19:01:26.407Z,4.57
2017-11-26T19:03:52.684Z,3.40
2017-11-26T19:06:19.029Z,2.80
2017-11-26T19:08:45.294Z,3.30
2017-11-26T19:11:11.578Z,3.90
2017-11-26T19:13:38.638Z,3.43
2017-11-26T19:16:04.965Z,3.03
2017-11-26T19:18:31.265Z,3.67
2017-11-26T19:20:57.680Z,3.37
2017-11-26T19:23:24.355Z,2.17
2017-11-26T19:25:50.645Z,4.03
2017-11-26T19:28:17.003Z,2.47
2017-11-26T19:30:44.088Z,3.33
2017-11-26T19:33:10.377Z,3.87
2017-11-26T19:35:37.443Z,3.50
2017-11-26T19:38:03.759Z,3.60
2017-11-26T19:40:30.060Z,4.00
2017-11-26T19:42:56.363Z,2.30
2017-11-26T19:45:22.881Z,4.17
2017-11-26T19:47:49.174Z,3.73
2017-11-26T19:50:15.546Z,4.27
2017-11-26T19:52:41.810Z,4.73
2017-11-26T19:55:08.182Z,4.07
2017-11-26T19:57:35.252Z,4.83
2017-11-26T20:00:01.553Z,3.50
2017-11-26T20:02:28.300Z,6.20
2017-11-26T20:04:55.377Z,4.93
2017-11-26T20:07:22.086Z,5.17
2017-11-26T20:09:49.101Z,4.00
2017-11-26T20:12:15.397Z,5.50
2017-11-26T20:14:41.689Z,3.17
2017-11-26T20:17:08.883Z,5.70
2017-11-26T20:19:35.220Z,4.20
2017-11-26T20:22:01.478Z,6.00
2017-11-26T20:24:27.777Z,5.87
2017-11-26T20:26:54.026Z,5.57
2017-11-26T20:29:20.355Z,6.57
2017-11-26T20:31:46.626Z,3.43
2017-11-26T20:34:13.632Z,6.50
2017-11-26T20:36:39.886Z,6.30
2017-11-26T20:39:06.963Z,6.00
2017-11-26T20:41:33.231Z,6.57
2017-11-26T20:43:59.578Z,5.60
2017-11-26T20:46:25.835Z,6.50
2017-11-26T20:48:52.844Z,4.77
2017-11-26T20:51:19.174Z,4.23
2017-11-26T20:53:45.450Z,5.60
2017-11-26T20:56:12.454Z,7.37
2017-11-26T20:58:38.751Z,6.00
2017-11-26T21:01:05.044Z,4.27
2017-11-26T21:03:32.069Z,4.93
2017-11-26T21:05:58.310Z,5.67
2017-11-26T21:08:24.745Z,6.20
2017-11-26T21:10:50.993Z,5.30
2017-11-26T21:13:18.018Z,6.83
2017-11-26T21:15:44.275Z,6.83
2017-11-26T21:18:10.634Z,6.13
2017-11-26T21:20:36.901Z,6.67
2017-11-26T21:23:03.201Z,5.30
2017-11-26T21:25:29.463Z,6.03
2017-11-26T21:27:55.750Z,4.97
2017-11-26T21:30:22.018Z,6.63
2017-11-26T21:32:48.303Z,5.63
2017-11-26T21:35:14.572Z,2.93
2017-11-26T21:37:40.924Z,6.07
2017-11-26T21:40:07.907Z,4.20
2017-11-26T21:42:34.177Z,7.23
2017-11-26T21:45:00.693Z,5.47
2017-11-26T21:47:26.970Z,5.80
2017-11-26T21:49:53.960Z,6.67
2017-11-26T21:52:20.261Z,3.43
2017-11-26T21:54:46.550Z,4.70
2017-11-26T21:57:12.898Z,6.10
2017-11-26T21:59:39.913Z,4.47
2017-11-26T22:02:06.998Z,8.00
2017-11-26T22:04:33.273Z,7.97
2017-11-26T22:06:59.571Z,4.50
2017-11-26T22:09:25.846Z,7.97
2017-11-26T22:11:52.146Z,8.37
2017-11-26T22:14:18.398Z,7.37
2017-11-26T22:16:44.692Z,9.53
2017-11-26T22:19:11.667Z,7.17
2017-11-26T22:21:37.980Z,7.07
2017-11-26T22:24:04.244Z,10.20
2017-11-26T22:26:31.280Z,7.17
2017-11-26T22:28:57.540Z,8.27
2017-11-26T22:31:24.596Z,7.70
2017-11-26T22:33:50.870Z,5.90
2017-11-26T22:36:17.180Z,9.23
2017-11-26T22:38:43.441Z,10.53
2017-11-26T22:41:09.710Z,10.70
2017-11-26T22:43:35.996Z,9.33
2017-11-26T22:46:02.300Z,11.47
2017-11-26T22:48:28.598Z,10.53
2017-11-26T22:50:54.873Z,6.23
2017-11-26T22:53:21.142Z,9.70
2017-11-26T22:55:47.438Z,10.57
2017-11-26T22:58:13.678Z,10.77
2017-11-26T23:00:39.937Z,10.00
2017-11-26T23:03:06.228Z,9.53
2017-11-26T23:05:32.513Z,10.73
2017-11-26T23:07:59.586Z,9.00
2017-11-26T23:10:25.867Z,11.97
2017-11-26T23:12:52.204Z,7.67
2017-11-26T23:15:18.477Z,10.77
2017-11-26T23:17:44.745Z,9.57
2017-11-26T23:20:11.021Z,7.60
2017-11-26T23:22:38.046Z,8.67
2017-11-26T23:25:04.342Z,9.23
2017-11-26T23:27:30.642Z,8.60
2017-11-26T23:29:56.900Z,9.83
2017-11-26T23:32:23.192Z,5.20
2017-11-26T23:34:49.450Z,6.80
2017-11-26T23:37:15.722Z,9.00
2017-11-26T23:39:41.998Z,4.70
2017-11-26T23:42:08.325Z,9.83
2017-11-26T23:44:34.581Z,9.43
2017-11-26T23:47:00.841Z,8.40
2017-11-26T23:49:27.098Z,8.27
2017-11-26T23:51:53.379Z,8.67
2017-11-26T23:54:19.666Z,5.90
2017-11-26T23:56:45.953Z,5.57
2017-11-26T23:59:12.256Z,8.00
